sensor_id;sensor_type;location;lat;lon;timestamp;P1;durP1;ratioP1;P2;durP2;ratioP2
16994;SDS011;8614;48.522;9.206;2023-02-03T03:02:32;11.47;;;10.80;;
16994;SDS011;8614;48.522;9.206;2023-02-03T03:05:01;11.03;;;10.43;;
16994;SDS011;8614;48.522;9.206;2023-02-03T03:07:30;11.13;;;10.50;;
16994;SDS011;8614;48.522;9.206;2023-02-03T03:10:06;11.60;;;10.80;;
16994;SDS011;8614;48.522;9.206;2023-02-03T03:12:36;11.40;;;10.63;;
16994;SDS011;8614;48.522;9.206;2023-02-03T03:15:07;11.33;;;10.70;;
16994;SDS011;8614;48.522;9.206;2023-02-03T03:17:40;11.30;;;10.70;;
16994;SDS011;8614;48.522;9.206;2023-02-03T03:20:11;11.23;;;10.60;;
16994;SDS011;8614;48.522;9.206;2023-02-03T03:22:44;11.33;;;10.70;;
16994;SDS011;8614;48.522;9.206;2023-02-03T03:25:17;11.70;;;11.00;;
16994;SDS011;8614;48.522;9.206;2023-02-03T03:27:47;11.10;;;10.50;;
16994;SDS011;8614;48.522;9.206;2023-02-03T03:30:17;11.23;;;10.60;;
16994;SDS011;8614;48.522;9.206;2023-02-03T03:32:49;11.10;;;10.50;;
16994;SDS011;8614;48.522;9.206;2023-02-03T03:35:17;11.10;;;10.50;;
16994;SDS011;8614;48.522;9.206;2023-02-03T03:37:45;10.97;;;10.37;;
16994;SDS011;8614;48.522;9.206;2023-02-03T03:40:19;11.00;;;10.40;;
16994;SDS011;8614;48.522;9.206;2023-02-03T03:42:52;11.13;;;10.50;;
16994;SDS011;8614;48.522;9.206;2023-02-03T03:45:23;11.30;;;10.70;;
16994;SDS011;8614;48.522;9.206;2023-02-03T03:47:58;11.10;;;10.43;;
16994;SDS011;8614;48.522;9.206;2023-02-03T03:50:29;11.33;;;10.60;;
16994;SDS011;8614;48.522;9.206;2023-02-03T03:53:00;11.07;;;10.47;;
16994;SDS011;8614;48.522;9.206;2023-02-03T03:55:29;11.80;;;10.97;;
16994;SDS011;8614;48.522;9.206;2023-02-03T03:58:00;11.20;;;10.60;;
16994;SDS011;8614;48.522;9.206;2023-02-03T04:00:30;11.87;;;11.17;;
16994;SDS011;8614;48.522;9.206;2023-02-03T04:03:02;11.07;;;10.37;;
16994;SDS011;8614;48.522;9.206;2023-02-03T04:05:35;11.03;;;10.43;;
16994;SDS011;8614;48.522;9.206;2023-02-03T04:08:04;11.00;;;10.40;;
16994;SDS011;8614;48.522;9.206;2023-02-03T04:10:32;11.10;;;10.50;;
16994;SDS011;8614;48.522;9.206;2023-02-03T04:13:00;11.30;;;10.70;;
16994;SDS011;8614;48.522;9.206;2023-02-03T04:15:29;11.70;;;11.00;;
16994;SDS011;8614;48.522;9.206;2023-02-03T04:17:56;11.27;;;10.67;;
16994;SDS011;8614;48.522;9.206;2023-02-03T04:20:27;11.33;;;10.73;;
16994;SDS011;8614;48.522;9.206;2023-02-03T04:22:54;11.73;;;10.90;;
16994;SDS011;8614;48.522;9.206;2023-02-03T04:25:21;11.70;;;11.00;;
16994;SDS011;8614;48.522;9.206;2023-02-03T04:27:48;11.80;;;11.10;;
16994;SDS011;8614;48.522;9.206;2023-02-03T04:30:15;11.80;;;11.17;;
16994;SDS011;8614;48.522;9.206;2023-02-03T04:32:43;11.33;;;10.73;;
16994;SDS011;8614;48.522;9.206;2023-02-03T04:35:10;11.83;;;11.13;;
16994;SDS011;8614;48.522;9.206;2023-02-03T04:37:38;11.37;;;10.77;;
16994;SDS011;8614;48.522;9.206;2023-02-03T04:40:05;11.53;;;10.93;;
16994;SDS011;8614;48.522;9.206;2023-02-03T04:42:35;11.70;;;11.00;;
16994;SDS011;8614;48.522;9.206;2023-02-03T04:45:02;11.23;;;10.63;;
16994;SDS011;8614;48.522;9.206;2023-02-03T04:47:29;11.37;;;10.77;;
16994;SDS011;8614;48.522;9.206;2023-02-03T04:49:56;11.27;;;10.67;;
16994;SDS011;8614;48.522;9.206;2023-02-03T04:52:23;11.13;;;10.53;;
16994;SDS011;8614;48.522;9.206;2023-02-03T04:54:53;11.07;;;10.37;;
16994;SDS011;8614;48.522;9.206;2023-02-03T04:57:20;11.13;;;10.43;;
16994;SDS011;8614;48.522;9.206;2023-02-03T04:59:47;11.20;;;10.60;;
16994;SDS011;8614;48.522;9.206;2023-02-03T05:02:14;11.10;;;10.50;;
16994;SDS011;8614;48.522;9.206;2023-02-03T05:04:40;11.57;;;10.90;;
16994;SDS011;8614;48.522;9.206;2023-02-03T05:07:08;11.50;;;10.90;;
16994;SDS011;8614;48.522;9.206;2023-02-03T05:09:35;11.60;;;11.00;;
16994;SDS011;8614;48.522;9.206;2023-02-03T05:12:03;11.50;;;10.80;;
16994;SDS011;8614;48.522;9.206;2023-02-03T05:14:30;11.60;;;11.00;;
16994;SDS011;8614;48.522;9.206;2023-02-03T05:16:57;11.53;;;10.93;;
16994;SDS011;8614;48.522;9.206;2023-02-03T05:19:24;11.27;;;10.67;;
16994;SDS011;8614;48.522;9.206;2023-02-03T05:21:51;11.23;;;10.53;;
16994;SDS011;8614;48.522;9.206;2023-02-03T05:24:18;11.10;;;10.50;;
16994;SDS011;8614;48.522;9.206;2023-02-03T05:26:44;11.47;;;10.67;;
16994;SDS011;8614;48.522;9.206;2023-02-03T05:29:12;11.20;;;10.60;;
16994;SDS011;8614;48.522;9.206;2023-02-03T05:31:39;11.40;;;10.60;;
16994;SDS011;8614;48.522;9.206;2023-02-03T05:34:06;11.50;;;10.90;;
16994;SDS011;8614;48.522;9.206;2023-02-03T05:36:33;11.90;;;11.20;;
16994;SDS011;8614;48.522;9.206;2023-02-03T05:39:00;12.00;;;11.30;;
16994;SDS011;8614;48.522;9.206;2023-02-03T05:41:26;12.00;;;11.30;;
16994;SDS011;8614;48.522;9.206;2023-02-03T05:44:12;11.40;;;10.80;;
16994;SDS011;8614;48.522;9.206;2023-02-03T05:46:39;11.80;;;11.10;;
16994;SDS011;8614;48.522;9.206;2023-02-03T05:49:06;11.53;;;10.83;;
16994;SDS011;8614;48.522;9.206;2023-02-03T05:51:33;11.47;;;10.87;;
16994;SDS011;8614;48.522;9.206;2023-02-03T05:53:59;11.60;;;11.00;;
16994;SDS011;8614;48.522;9.206;2023-02-03T05:56:26;11.70;;;11.00;;
16994;SDS011;8614;48.522;9.206;2023-02-03T05:58:53;12.00;;;11.30;;
16994;SDS011;8614;48.522;9.206;2023-02-03T06:01:21;12.10;;;11.40;;
16994;SDS011;8614;48.522;9.206;2023-02-03T06:03:48;12.43;;;11.73;;
16994;SDS011;8614;48.522;9.206;2023-02-03T06:06:15;12.10;;;11.40;;
16994;SDS011;8614;48.522;9.206;2023-02-03T06:08:42;11.87;;;11.27;;
16994;SDS011;8614;48.522;9.206;2023-02-03T06:11:09;12.90;;;12.07;;
16994;SDS011;8614;48.522;9.206;2023-02-03T06:13:36;12.00;;;11.30;;
16994;SDS011;8614;48.522;9.206;2023-02-03T06:16:03;11.80;;;11.20;;
16994;SDS011;8614;48.522;9.206;2023-02-03T06:18:32;12.10;;;11.40;;
16994;SDS011;8614;48.522;9.206;2023-02-03T06:20:58;12.27;;;11.57;;
16994;SDS011;8614;48.522;9.206;2023-02-03T06:23:26;12.03;;;11.40;;
16994;SDS011;8614;48.522;9.206;2023-02-03T06:25:53;12.00;;;11.40;;
16994;SDS011;8614;48.522;9.206;2023-02-03T06:28:20;12.60;;;11.90;;
16994;SDS011;8614;48.522;9.206;2023-02-03T06:30:48;12.10;;;11.30;;
16994;SDS011;8614;48.522;9.206;2023-02-03T06:33:17;11.70;;;11.10;;
16994;SDS011;8614;48.522;9.206;2023-02-03T06:35:45;12.13;;;11.43;;
16994;SDS011;8614;48.522;9.206;2023-02-03T06:38:12;11.87;;;11.17;;
16994;SDS011;8614;48.522;9.206;2023-02-03T06:40:39;12.00;;;11.30;;
16994;SDS011;8614;48.522;9.206;2023-02-03T06:43:06;11.53;;;10.83;;
16994;SDS011;8614;48.522;9.206;2023-02-03T06:45:33;11.57;;;10.87;;
16994;SDS011;8614;48.522;9.206;2023-02-03T06:47:59;12.00;;;11.20;;
16994;SDS011;8614;48.522;9.206;2023-02-03T06:50:26;11.70;;;11.10;;
16994;SDS011;8614;48.522;9.206;2023-02-03T06:52:54;12.17;;;11.37;;
16994;SDS011;8614;48.522;9.206;2023-02-03T06:55:21;11.60;;;11.00;;
16994;SDS011;8614;48.522;9.206;2023-02-03T06:57:48;11.80;;;11.10;;
16994;SDS011;8614;48.522;9.206;2023-02-03T07:00:16;12.00;;;11.30;;
16994;SDS011;8614;48.522;9.206;2023-02-03T07:02:44;11.80;;;11.17;;
16994;SDS011;8614;48.522;9.206;2023-02-03T07:05:11;12.20;;;11.50;;
16994;SDS011;8614;48.522;9.206;2023-02-03T07:07:38;12.40;;;11.60;;
16994;SDS011;8614;48.522;9.206;2023-02-03T07:10:06;11.30;;;10.70;;
16994;SDS011;8614;48.522;9.206;2023-02-03T07:12:34;12.20;;;11.40;;
16994;SDS011;8614;48.522;9.206;2023-02-03T07:15:01;11.97;;;11.27;;
16994;SDS011;8614;48.522;9.206;2023-02-03T07:17:28;12.10;;;11.40;;
16994;SDS011;8614;48.522;9.206;2023-02-03T07:19:56;12.10;;;11.40;;
16994;SDS011;8614;48.522;9.206;2023-02-03T07:22:22;11.90;;;11.30;;
16994;SDS011;8614;48.522;9.206;2023-02-03T07:24:49;13.80;;;12.63;;
16994;SDS011;8614;48.522;9.206;2023-02-03T07:27:17;17.10;;;15.60;;
16994;SDS011;8614;48.522;9.206;2023-02-03T07:29:44;16.80;;;15.30;;
16994;SDS011;8614;48.522;9.206;2023-02-03T07:32:11;17.23;;;15.67;;
16994;SDS011;8614;48.522;9.206;2023-02-03T07:34:38;14.97;;;13.87;;
16994;SDS011;8614;48.522;9.206;2023-02-03T07:37:05;14.00;;;13.10;;
16994;SDS011;8614;48.522;9.206;2023-02-03T07:39:31;12.80;;;12.00;;
16994;SDS011;8614;48.522;9.206;2023-02-03T07:41:58;13.03;;;12.03;;
16994;SDS011;8614;48.522;9.206;2023-02-03T07:44:28;12.00;;;11.30;;
16994;SDS011;8614;48.522;9.206;2023-02-03T07:46:55;12.50;;;11.70;;
16994;SDS011;8614;48.522;9.206;2023-02-03T07:49:22;11.80;;;11.20;;
16994;SDS011;8614;48.522;9.206;2023-02-03T07:51:48;12.30;;;11.60;;
16994;SDS011;8614;48.522;9.206;2023-02-03T07:54:15;11.90;;;11.10;;
16994;SDS011;8614;48.522;9.206;2023-02-03T07:56:42;11.80;;;11.10;;
16994;SDS011;8614;48.522;9.206;2023-02-03T07:59:09;11.87;;;11.07;;
16994;SDS011;8614;48.522;9.206;2023-02-03T08:01:37;11.20;;;10.60;;
16994;SDS011;8614;48.522;9.206;2023-02-03T08:04:04;11.63;;;10.90;;
16994;SDS011;8614;48.522;9.206;2023-02-03T08:06:31;12.03;;;11.23;;
16994;SDS011;8614;48.522;9.206;2023-02-03T08:08:57;11.73;;;11.03;;
16994;SDS011;8614;48.522;9.206;2023-02-03T08:11:24;12.30;;;11.60;;
16994;SDS011;8614;48.522;9.206;2023-02-03T08:13:51;12.07;;;11.27;;
16994;SDS011;8614;48.522;9.206;2023-02-03T08:16:18;11.80;;;11.20;;
16994;SDS011;8614;48.522;9.206;2023-02-03T08:18:46;11.40;;;10.80;;
16994;SDS011;8614;48.522;9.206;2023-02-03T08:21:13;11.67;;;10.87;;
16994;SDS011;8614;48.522;9.206;2023-02-03T08:23:40;12.00;;;11.20;;
16994;SDS011;8614;48.522;9.206;2023-02-03T08:26:07;11.53;;;10.83;;
16994;SDS011;8614;48.522;9.206;2023-02-03T08:28:33;11.63;;;11.00;;
16994;SDS011;8614;48.522;9.206;2023-02-03T08:31:00;11.77;;;11.07;;
16994;SDS011;8614;48.522;9.206;2023-02-03T08:33:27;11.73;;;10.97;;
16994;SDS011;8614;48.522;9.206;2023-02-03T08:35:55;12.00;;;11.30;;
16994;SDS011;8614;48.522;9.206;2023-02-03T08:38:24;12.20;;;11.50;;
16994;SDS011;8614;48.522;9.206;2023-02-03T08:40:51;11.77;;;11.17;;
16994;SDS011;8614;48.522;9.206;2023-02-03T08:43:18;11.70;;;11.10;;
16994;SDS011;8614;48.522;9.206;2023-02-03T08:45:45;11.97;;;11.27;;
16994;SDS011;8614;48.522;9.206;2023-02-03T08:48:12;12.00;;;11.30;;
16994;SDS011;8614;48.522;9.206;2023-02-03T08:50:40;12.23;;;11.43;;
16994;SDS011;8614;48.522;9.206;2023-02-03T08:53:09;12.37;;;11.60;;
16994;SDS011;8614;48.522;9.206;2023-02-03T08:55:37;12.10;;;11.30;;
16994;SDS011;8614;48.522;9.206;2023-02-03T08:58:05;11.03;;;10.43;;
16994;SDS011;8614;48.522;9.206;2023-02-03T09:00:32;11.53;;;10.77;;
16994;SDS011;8614;48.522;9.206;2023-02-03T09:02:58;11.40;;;10.70;;
16994;SDS011;8614;48.522;9.206;2023-02-03T09:05:25;11.53;;;10.80;;
16994;SDS011;8614;48.522;9.206;2023-02-03T09:07:52;11.43;;;10.83;;
16994;SDS011;8614;48.522;9.206;2023-02-03T09:10:20;11.30;;;10.70;;
16994;SDS011;8614;48.522;9.206;2023-02-03T09:12:47;11.43;;;10.80;;
16994;SDS011;8614;48.522;9.206;2023-02-03T09:15:14;11.90;;;11.27;;
16994;SDS011;8614;48.522;9.206;2023-02-03T09:17:41;12.30;;;11.40;;
16994;SDS011;8614;48.522;9.206;2023-02-03T09:20:08;11.17;;;10.57;;
16994;SDS011;8614;48.522;9.206;2023-02-03T09:22:37;10.73;;;10.03;;
16994;SDS011;8614;48.522;9.206;2023-02-03T09:25:04;11.10;;;10.47;;
16994;SDS011;8614;48.522;9.206;2023-02-03T09:27:33;11.00;;;10.40;;
16994;SDS011;8614;48.522;9.206;2023-02-03T09:29:59;11.00;;;10.40;;
16994;SDS011;8614;48.522;9.206;2023-02-03T09:32:26;11.00;;;10.40;;
16994;SDS011;8614;48.522;9.206;2023-02-03T09:34:53;11.17;;;10.57;;
16994;SDS011;8614;48.522;9.206;2023-02-03T09:37:20;11.20;;;10.60;;
16994;SDS011;8614;48.522;9.206;2023-02-03T09:39:47;11.20;;;10.60;;
16994;SDS011;8614;48.522;9.206;2023-02-03T09:42:26;11.53;;;10.80;;
16994;SDS011;8614;48.522;9.206;2023-02-03T09:45:06;11.50;;;10.90;;
16994;SDS011;8614;48.522;9.206;2023-02-03T09:47:38;11.00;;;10.30;;
16994;SDS011;8614;48.522;9.206;2023-02-03T09:50:09;11.60;;;10.90;;
16994;SDS011;8614;48.522;9.206;2023-02-03T09:52:40;11.77;;;11.07;;
16994;SDS011;8614;48.522;9.206;2023-02-03T09:55:11;13.57;;;12.67;;
16994;SDS011;8614;48.522;9.206;2023-02-03T09:57:47;12.10;;;11.33;;
16994;SDS011;8614;48.522;9.206;2023-02-03T10:00:21;12.20;;;11.50;;
16994;SDS011;8614;48.522;9.206;2023-02-03T10:02:54;11.20;;;10.60;;
16994;SDS011;8614;48.522;9.206;2023-02-03T10:05:24;11.17;;;10.47;;
16994;SDS011;8614;48.522;9.206;2023-02-03T10:08:02;10.73;;;10.13;;
16994;SDS011;8614;48.522;9.206;2023-02-03T10:10:38;10.70;;;10.10;;
16994;SDS011;8614;48.522;9.206;2023-02-03T10:13:10;10.93;;;10.23;;
16994;SDS011;8614;48.522;9.206;2023-02-03T10:15:51;10.60;;;10.00;;
16994;SDS011;8614;48.522;9.206;2023-02-03T10:18:30;10.93;;;10.33;;
16994;SDS011;8614;48.522;9.206;2023-02-03T10:21:01;11.27;;;10.47;;
16994;SDS011;8614;48.522;9.206;2023-02-03T10:23:32;11.07;;;10.37;;
16994;SDS011;8614;48.522;9.206;2023-02-03T10:26:03;11.00;;;10.40;;
16994;SDS011;8614;48.522;9.206;2023-02-03T10:28:36;10.80;;;10.20;;
16994;SDS011;8614;48.522;9.206;2023-02-03T10:31:06;11.17;;;10.40;;
16994;SDS011;8614;48.522;9.206;2023-02-03T10:33:41;11.00;;;10.40;;
16994;SDS011;8614;48.522;9.206;2023-02-03T10:36:10;11.20;;;10.50;;
16994;SDS011;8614;48.522;9.206;2023-02-03T10:38:45;11.33;;;10.70;;
16994;SDS011;8614;48.522;9.206;2023-02-03T10:41:21;11.40;;;10.70;;
16994;SDS011;8614;48.522;9.206;2023-02-03T10:43:50;11.23;;;10.53;;
16994;SDS011;8614;48.522;9.206;2023-02-03T10:46:20;10.87;;;10.27;;
16994;SDS011;8614;48.522;9.206;2023-02-03T10:48:51;10.90;;;10.30;;
16994;SDS011;8614;48.522;9.206;2023-02-03T10:51:19;11.03;;;10.30;;
16994;SDS011;8614;48.522;9.206;2023-02-03T10:53:48;11.33;;;10.73;;
16994;SDS011;8614;48.522;9.206;2023-02-03T10:56:18;11.20;;;10.60;;
16994;SDS011;8614;48.522;9.206;2023-02-03T10:58:48;11.77;;;11.07;;
16994;SDS011;8614;48.522;9.206;2023-02-03T11:01:18;12.10;;;11.30;;
16994;SDS011;8614;48.522;9.206;2023-02-03T11:03:57;11.80;;;11.00;;
16994;SDS011;8614;48.522;9.206;2023-02-03T11:06:26;12.23;;;11.43;;
16994;SDS011;8614;48.522;9.206;2023-02-03T11:08:53;12.03;;;11.23;;
16994;SDS011;8614;48.522;9.206;2023-02-03T11:11:21;11.70;;;11.00;;
16994;SDS011;8614;48.522;9.206;2023-02-03T11:13:55;11.77;;;11.17;;
16994;SDS011;8614;48.522;9.206;2023-02-03T11:16:37;11.50;;;10.90;;
16994;SDS011;8614;48.522;9.206;2023-02-03T11:19:05;11.43;;;10.83;;
16994;SDS011;8614;48.522;9.206;2023-02-03T11:21:41;11.83;;;11.23;;
16994;SDS011;8614;48.522;9.206;2023-02-03T11:24:12;12.43;;;11.53;;
16994;SDS011;8614;48.522;9.206;2023-02-03T11:26:44;11.70;;;11.00;;
16994;SDS011;8614;48.522;9.206;2023-02-03T11:29:16;12.03;;;11.37;;
16994;SDS011;8614;48.522;9.206;2023-02-03T11:31:48;11.43;;;10.73;;
16994;SDS011;8614;48.522;9.206;2023-02-03T11:34:18;11.70;;;11.07;;
16994;SDS011;8614;48.522;9.206;2023-02-03T11:36:48;11.27;;;10.67;;
16994;SDS011;8614;48.522;9.206;2023-02-03T11:39:25;11.50;;;10.90;;
16994;SDS011;8614;48.522;9.206;2023-02-03T11:41:54;11.57;;;10.80;;
16994;SDS011;8614;48.522;9.206;2023-02-03T11:44:24;11.43;;;10.73;;
16994;SDS011;8614;48.522;9.206;2023-02-03T11:46:54;11.47;;;10.87;;
16994;SDS011;8614;48.522;9.206;2023-02-03T11:49:41;11.47;;;10.87;;
16994;SDS011;8614;48.522;9.206;2023-02-03T11:52:29;11.60;;;10.90;;
16994;SDS011;8614;48.522;9.206;2023-02-03T11:55:04;11.30;;;10.50;;
16994;SDS011;8614;48.522;9.206;2023-02-03T11:57:43;10.93;;;10.33;;
16994;SDS011;8614;48.522;9.206;2023-02-03T12:00:21;11.60;;;10.90;;
16994;SDS011;8614;48.522;9.206;2023-02-03T12:05:57;10.50;;;9.90;;
16994;SDS011;8614;48.522;9.206;2023-02-03T12:08:43;10.97;;;10.37;;
16994;SDS011;8614;48.522;9.206;2023-02-03T12:11:33;11.30;;;10.70;;
16994;SDS011;8614;48.522;9.206;2023-02-03T12:14:12;11.40;;;10.80;;
16994;SDS011;8614;48.522;9.206;2023-02-03T12:17:03;11.07;;;10.47;;
16994;SDS011;8614;48.522;9.206;2023-02-03T12:19:43;11.00;;;10.27;;
16994;SDS011;8614;48.522;9.206;2023-02-03T12:22:27;11.20;;;10.60;;
16994;SDS011;8614;48.522;9.206;2023-02-03T12:25:00;11.43;;;10.83;;
16994;SDS011;8614;48.522;9.206;2023-02-03T12:27:39;11.30;;;10.50;;
16994;SDS011;8614;48.522;9.206;2023-02-03T12:30:12;11.50;;;10.83;;
16994;SDS011;8614;48.522;9.206;2023-02-03T12:32:47;11.57;;;10.97;;
16994;SDS011;8614;48.522;9.206;2023-02-03T12:35:20;11.30;;;10.60;;
16994;SDS011;8614;48.522;9.206;2023-02-03T12:37:51;11.20;;;10.50;;
16994;SDS011;8614;48.522;9.206;2023-02-03T12:40:25;11.37;;;10.77;;
16994;SDS011;8614;48.522;9.206;2023-02-03T12:43:01;12.23;;;11.50;;
16994;SDS011;8614;48.522;9.206;2023-02-03T12:45:44;11.60;;;10.90;;
16994;SDS011;8614;48.522;9.206;2023-02-03T12:48:18;11.50;;;10.80;;
16994;SDS011;8614;48.522;9.206;2023-02-03T12:50:49;12.43;;;11.57;;
16994;SDS011;8614;48.522;9.206;2023-02-03T12:53:19;14.60;;;13.27;;
16994;SDS011;8614;48.522;9.206;2023-02-03T12:55:50;18.73;;;15.53;;
16994;SDS011;8614;48.522;9.206;2023-02-03T12:58:25;18.60;;;16.60;;
16994;SDS011;8614;48.522;9.206;2023-02-03T13:00:55;13.77;;;12.67;;
16994;SDS011;8614;48.522;9.206;2023-02-03T13:03:27;12.30;;;11.40;;
16994;SDS011;8614;48.522;9.206;2023-02-03T13:06:01;10.70;;;10.10;;
16994;SDS011;8614;48.522;9.206;2023-02-03T13:08:34;11.10;;;10.43;;
16994;SDS011;8614;48.522;9.206;2023-02-03T13:11:09;11.30;;;10.70;;
16994;SDS011;8614;48.522;9.206;2023-02-03T13:13:45;11.10;;;10.40;;
16994;SDS011;8614;48.522;9.206;2023-02-03T13:16:15;10.80;;;10.17;;
16994;SDS011;8614;48.522;9.206;2023-02-03T13:18:51;10.73;;;10.13;;
16994;SDS011;8614;48.522;9.206;2023-02-03T13:21:23;10.67;;;10.07;;
16994;SDS011;8614;48.522;9.206;2023-02-03T13:23:50;11.00;;;10.40;;
16994;SDS011;8614;48.522;9.206;2023-02-03T13:26:22;11.00;;;10.40;;
16994;SDS011;8614;48.522;9.206;2023-02-03T13:29:07;11.20;;;10.60;;
16994;SDS011;8614;48.522;9.206;2023-02-03T13:31:47;10.73;;;10.13;;
16994;SDS011;8614;48.522;9.206;2023-02-03T13:34:35;11.30;;;10.60;;
16994;SDS011;8614;48.522;9.206;2023-02-03T13:37:26;11.20;;;10.60;;
16994;SDS011;8614;48.522;9.206;2023-02-03T13:42:51;11.23;;;10.63;;
16994;SDS011;8614;48.522;9.206;2023-02-03T13:45:22;11.60;;;10.80;;
16994;SDS011;8614;48.522;9.206;2023-02-03T13:47:53;10.80;;;10.20;;
16994;SDS011;8614;48.522;9.206;2023-02-03T13:50:24;10.70;;;10.20;;
16994;SDS011;8614;48.522;9.206;2023-02-03T13:52:55;10.87;;;10.27;;
16994;SDS011;8614;48.522;9.206;2023-02-03T13:55:27;10.93;;;10.33;;
16994;SDS011;8614;48.522;9.206;2023-02-03T13:57:58;10.90;;;10.30;;
16994;SDS011;8614;48.522;9.206;2023-02-03T14:03:42;11.20;;;10.50;;
16994;SDS011;8614;48.522;9.206;2023-02-03T14:12:31;10.63;;;10.03;;
16994;SDS011;8614;48.522;9.206;2023-02-03T14:15:00;11.00;;;10.40;;
16994;SDS011;8614;48.522;9.206;2023-02-03T14:23:43;10.20;;;9.70;;
16994;SDS011;8614;48.522;9.206;2023-02-03T14:26:23;10.27;;;9.67;;
16994;SDS011;8614;48.522;9.206;2023-02-03T14:28:57;10.50;;;9.90;;
16994;SDS011;8614;48.522;9.206;2023-02-03T14:31:24;10.80;;;10.10;;
16994;SDS011;8614;48.522;9.206;2023-02-03T14:34:05;11.10;;;10.50;;
16994;SDS011;8614;48.522;9.206;2023-02-03T14:36:45;11.10;;;10.50;;
16994;SDS011;8614;48.522;9.206;2023-02-03T14:42:29;11.13;;;10.53;;
16994;SDS011;8614;48.522;9.206;2023-02-03T14:45:27;10.57;;;10.00;;
16994;SDS011;8614;48.522;9.206;2023-02-03T14:48:23;10.47;;;9.87;;
16994;SDS011;8614;48.522;9.206;2023-02-03T14:51:03;10.70;;;10.10;;
16994;SDS011;8614;48.522;9.206;2023-02-03T14:53:50;10.87;;;10.27;;
16994;SDS011;8614;48.522;9.206;2023-02-03T14:56:35;10.70;;;10.10;;
16994;SDS011;8614;48.522;9.206;2023-02-03T14:59:34;10.90;;;10.30;;
16994;SDS011;8614;48.522;9.206;2023-02-03T15:02:11;10.47;;;9.90;;
16994;SDS011;8614;48.522;9.206;2023-02-03T15:04:41;10.80;;;10.20;;
16994;SDS011;8614;48.522;9.206;2023-02-03T15:10:12;10.57;;;9.97;;
16994;SDS011;8614;48.522;9.206;2023-02-03T15:12:44;10.40;;;9.80;;
16994;SDS011;8614;48.522;9.206;2023-02-03T15:15:21;10.50;;;9.90;;
16994;SDS011;8614;48.522;9.206;2023-02-03T15:17:53;10.80;;;10.20;;
16994;SDS011;8614;48.522;9.206;2023-02-03T15:20:25;10.50;;;9.90;;
16994;SDS011;8614;48.522;9.206;2023-02-03T15:22:56;11.10;;;10.40;;
16994;SDS011;8614;48.522;9.206;2023-02-03T15:25:23;11.50;;;10.80;;
16994;SDS011;8614;48.522;9.206;2023-02-03T15:27:52;11.80;;;11.00;;
16994;SDS011;8614;48.522;9.206;2023-02-03T15:30:23;11.80;;;11.17;;
16994;SDS011;8614;48.522;9.206;2023-02-03T15:32:54;12.97;;;12.10;;
16994;SDS011;8614;48.522;9.206;2023-02-03T15:35:27;12.53;;;11.53;;
16994;SDS011;8614;48.522;9.206;2023-02-03T15:37:58;11.70;;;11.00;;
16994;SDS011;8614;48.522;9.206;2023-02-03T15:40:29;11.27;;;10.50;;
16994;SDS011;8614;48.522;9.206;2023-02-03T15:43:03;10.83;;;10.17;;
16994;SDS011;8614;48.522;9.206;2023-02-03T15:45:38;11.07;;;10.37;;
16994;SDS011;8614;48.522;9.206;2023-02-03T15:48:12;11.07;;;10.37;;
16994;SDS011;8614;48.522;9.206;2023-02-03T15:50:44;10.80;;;10.20;;
16994;SDS011;8614;48.522;9.206;2023-02-03T15:53:14;11.07;;;10.47;;
16994;SDS011;8614;48.522;9.206;2023-02-03T15:55:46;11.37;;;10.77;;
16994;SDS011;8614;48.522;9.206;2023-02-03T15:58:15;10.57;;;9.97;;
16994;SDS011;8614;48.522;9.206;2023-02-03T16:00:47;10.60;;;10.00;;
16994;SDS011;8614;48.522;9.206;2023-02-03T16:03:21;11.07;;;10.47;;
16994;SDS011;8614;48.522;9.206;2023-02-03T16:06:04;10.43;;;9.83;;
16994;SDS011;8614;48.522;9.206;2023-02-03T16:08:35;10.63;;;9.93;;
16994;SDS011;8614;48.522;9.206;2023-02-03T16:11:20;10.20;;;9.60;;
16994;SDS011;8614;48.522;9.206;2023-02-03T16:13:49;10.70;;;10.00;;
16994;SDS011;8614;48.522;9.206;2023-02-03T16:16:19;10.73;;;10.13;;
16994;SDS011;8614;48.522;9.206;2023-02-03T16:18:49;11.87;;;11.10;;
16994;SDS011;8614;48.522;9.206;2023-02-03T16:21:23;11.50;;;10.80;;
16994;SDS011;8614;48.522;9.206;2023-02-03T16:24:00;11.57;;;10.87;;
16994;SDS011;8614;48.522;9.206;2023-02-03T16:26:28;11.30;;;10.60;;
16994;SDS011;8614;48.522;9.206;2023-02-03T16:28:56;11.30;;;10.60;;
16994;SDS011;8614;48.522;9.206;2023-02-03T16:31:58;11.20;;;10.50;;
16994;SDS011;8614;48.522;9.206;2023-02-03T16:34:43;11.50;;;10.77;;
16994;SDS011;8614;48.522;9.206;2023-02-03T16:37:28;11.20;;;10.50;;
16994;SDS011;8614;48.522;9.206;2023-02-03T16:40:15;10.40;;;9.80;;
16994;SDS011;8614;48.522;9.206;2023-02-03T16:43:02;10.70;;;9.90;;
16994;SDS011;8614;48.522;9.206;2023-02-03T16:45:50;10.33;;;9.63;;
16994;SDS011;8614;48.522;9.206;2023-02-03T16:48:39;10.23;;;9.63;;
16994;SDS011;8614;48.522;9.206;2023-02-03T16:51:23;10.93;;;10.23;;
16994;SDS011;8614;48.522;9.206;2023-02-03T16:53:51;11.00;;;10.30;;
16994;SDS011;8614;48.522;9.206;2023-02-03T16:56:18;13.33;;;12.30;;
16994;SDS011;8614;48.522;9.206;2023-02-03T16:58:45;13.70;;;12.73;;
16994;SDS011;8614;48.522;9.206;2023-02-03T17:01:12;15.97;;;14.67;;
16994;SDS011;8614;48.522;9.206;2023-02-03T17:03:40;29.70;;;26.27;;
16994;SDS011;8614;48.522;9.206;2023-02-03T17:06:09;33.03;;;29.43;;
16994;SDS011;8614;48.522;9.206;2023-02-03T17:08:37;23.17;;;20.97;;
16994;SDS011;8614;48.522;9.206;2023-02-03T17:11:05;18.73;;;17.13;;
16994;SDS011;8614;48.522;9.206;2023-02-03T17:13:33;16.20;;;15.00;;
16994;SDS011;8614;48.522;9.206;2023-02-03T17:16:05;17.30;;;16.10;;
16994;SDS011;8614;48.522;9.206;2023-02-03T17:18:37;16.63;;;15.33;;
16994;SDS011;8614;48.522;9.206;2023-02-03T17:21:11;16.40;;;15.10;;
16994;SDS011;8614;48.522;9.206;2023-02-03T17:23:39;13.80;;;12.90;;
16994;SDS011;8614;48.522;9.206;2023-02-03T17:26:06;13.10;;;12.20;;
16994;SDS011;8614;48.522;9.206;2023-02-03T17:28:33;12.57;;;11.77;;
16994;SDS011;8614;48.522;9.206;2023-02-03T17:31:02;11.57;;;10.83;;
16994;SDS011;8614;48.522;9.206;2023-02-03T17:33:31;10.90;;;10.30;;
16994;SDS011;8614;48.522;9.206;2023-02-03T17:36:03;10.90;;;10.30;;
16994;SDS011;8614;48.522;9.206;2023-02-03T17:38:36;10.77;;;10.17;;
16994;SDS011;8614;48.522;9.206;2023-02-03T17:41:06;10.73;;;10.13;;
16994;SDS011;8614;48.522;9.206;2023-02-03T17:43:38;13.10;;;12.30;;
16994;SDS011;8614;48.522;9.206;2023-02-03T17:46:05;12.53;;;11.83;;
16994;SDS011;8614;48.522;9.206;2023-02-03T17:48:33;12.53;;;11.80;;
16994;SDS011;8614;48.522;9.206;2023-02-03T17:51:06;12.73;;;12.03;;
16994;SDS011;8614;48.522;9.206;2023-02-03T17:53:36;13.20;;;12.40;;
16994;SDS011;8614;48.522;9.206;2023-02-03T17:56:06;12.00;;;11.30;;
16994;SDS011;8614;48.522;9.206;2023-02-03T17:58:34;12.90;;;12.20;;
16994;SDS011;8614;48.522;9.206;2023-02-03T18:01:05;12.00;;;11.30;;
16994;SDS011;8614;48.522;9.206;2023-02-03T18:03:33;12.40;;;11.70;;
16994;SDS011;8614;48.522;9.206;2023-02-03T18:06:00;11.80;;;11.10;;
16994;SDS011;8614;48.522;9.206;2023-02-03T18:08:32;11.87;;;11.10;;
16994;SDS011;8614;48.522;9.206;2023-02-03T18:11:05;11.87;;;11.10;;
16994;SDS011;8614;48.522;9.206;2023-02-03T18:13:33;11.60;;;11.00;;
16994;SDS011;8614;48.522;9.206;2023-02-03T18:16:00;13.37;;;12.30;;
16994;SDS011;8614;48.522;9.206;2023-02-03T18:18:30;13.80;;;12.80;;
16994;SDS011;8614;48.522;9.206;2023-02-03T18:21:00;12.37;;;11.53;;
16994;SDS011;8614;48.522;9.206;2023-02-03T18:23:28;12.37;;;11.37;;
16994;SDS011;8614;48.522;9.206;2023-02-03T18:25:58;12.20;;;11.50;;
16994;SDS011;8614;48.522;9.206;2023-02-03T18:28:26;12.00;;;11.30;;